Airfield :
LOGIN :

Register | Disclaimer

   EN    FR    IT 

 










Legend :    VFR   Marginal VFR   IFR   Intensive IFR   Very Intensive IFR
Visi :
Ceiling :
>= 8 km
>= 3000ft
5 to 8 km
1000 to 3000 ft
1500m to 5 km
500 to 1000 ft
800 to 1500m
200 to 500 ft
< 800m
< 200 ft
Symbols :   Thunderstorms  Fog  Heavy snow  Heavy precipitations  Wind > 20 kt
SIGMETs :     Misc.  Thunderstorms  Icing  Turbulence  Mountain Waves  Volcanic Ashes






- Airport Elevation : 485 ft
- IATA code : QSA


LELL - Sabadell

CURRENT METAR :
  • 081130Z 00000KT 9999 FEW020 BKN055 12/09 Q1015

EXPIRED METARs :
  • 081100Z 00000KT 9999 -RA FEW020 BKN055 12/09 Q1015
  • 081030Z 00000KT 8000 -RA FEW020 BKN055 12/09 Q1015
  • 081000Z 00000KT 8000 -RA FEW020 BKN055 11/09 Q1015
  • 080930Z 06004KT 340V110 9999 -RA FEW020 BKN055 11/08 Q1015
  • 080900Z 09003KT 020V150 9999 -RA FEW020 BKN055 11/08 Q1015

TAF TAF LELL
Valid from the 08 at 09:00 until the 09 at 09:00 UTC


080800Z 0809/0909 05005KT 9999 BKN040 TX12/0813Z TN08/0906Z
PROB40
TEMPO 0809/0819 4000 SHRA BKN012 FEW025TCU
BECMG 0816/0818 27007KT
PROB30
TEMPO 0822/0907 4000 BR



MET'MAP, your aeronautical weather chart ! - Copyright ORBIFLY December 2007 - Disclaimer

ORBIFLY MET'MAP TEAM :

Programming & Development : Alexandra Zaïnal
Concept & original design : Baudouin d'Aumeries
Assistance for programming : Marc-Olivier Méhu
Technical & hardware support : Manuel Goepfert

Contact : metmap@orbifly.com




SOURCES & CREDITS :

   NOAA